Weather History for Woodward, OK

Change the Weather History Date:

Sunday, February 17, 2013

  Actual Average (KGAG) Record (KGAG)
Temperature  
Mean Temperature 51 °F -  
Max Temperature 69 °F 51 °F 86 °F (1970)
Min Temperature 33 °F 25 °F 2 °F (1975)
Degree Days  
Heating Degree Days 14    
Growing Degree Days 1 (Base 50)    
Moisture  
Dew Point 27 °F    
Average Humidity 45    
Maximum Humidity 81    
Minimum Humidity 16    
Precipitation  
Precipitation 0.00 in - - ()
Sea Level Pressure  
Sea Level Pressure 29.82 in    
Wind  
Wind Speed 12 mph (SSW)    
Max Wind Speed 26 mph    
Max Gust Speed 36 mph    
Visibility 10 miles    
Events      
Averages and records for this station are not official NWS values.
T = Trace of Precipitation, MM = Missing Value Source: NWS Daily Summary

Daily Weather History Graph

Daily Weather History Graph

Search for Another Location

Airport:

Trip Planner

Search our weather history database for the weather conditions in past years. The results will help you decide how hot, cold, wet, or windy it might be!

Date:

Astronomy

Feb. 17, 2013 Rise Set
Actual Time 7:23 AM CST 6:21 PM CST
Civil Twilight 6:57 AM CST 6:47 PM CST
Nautical Twilight 6:26 AM CST 7:17 PM CST
Astronomical Twilight 5:57 AM CST 7:47 PM CST
Moon 11:30 AM CST 1:05 AM CST
Length of Visible Light 11h 50m
Length of Day
10h 58m
Waxing Crescent, 49% of the Moon is Illuminated
Feb 17
Waxing Crescent
Feb 17
First Quarter
Feb 25
Full
Mar 4
Last Quarter
Mar 11
New

Hourly Weather History & Observations

Time (CST) Temp. Windchill Dew Point Humidity Pressure Visibility Wind Dir Wind Speed Gust Speed Precip Events Conditions
12:15 AM 41.0 °F 35.2 °F 30.2 °F 65% 30.03 in 10.0 mi SW 9.2 mph - N/A   Clear
12:35 AM 37.4 °F 30.3 °F 30.2 °F 75% 30.03 in 10.0 mi SW 10.4 mph - N/A   Clear
12:55 AM 37.4 °F 30.8 °F 30.2 °F 75% 30.02 in 10.0 mi SW 9.2 mph - N/A   Clear
1:15 AM 37.4 °F 30.3 °F 30.2 °F 75% 30.02 in 10.0 mi SW 10.4 mph - N/A   Clear
1:35 AM 39.2 °F 31.6 °F 30.2 °F 70% 30.02 in 10.0 mi SW 12.7 mph - N/A   Clear
1:55 AM 41.0 °F 34.3 °F 30.2 °F 65% 30.01 in 10.0 mi SW 11.5 mph - N/A   Clear
2:15 AM 37.4 °F 30.8 °F 30.2 °F 75% 30.01 in 10.0 mi SW 9.2 mph - N/A   Clear
2:35 AM 37.4 °F 30.8 °F 30.2 °F 75% 30.00 in 10.0 mi SW 9.2 mph - N/A   Clear
2:55 AM 37.4 °F 29.8 °F 30.2 °F 75% 30.00 in 10.0 mi SW 11.5 mph - N/A   Clear
3:15 AM 37.4 °F 30.3 °F 28.4 °F 70% 29.99 in 10.0 mi SW 10.4 mph - N/A   Clear
3:35 AM 35.6 °F 27.5 °F 28.4 °F 75% 29.98 in 10.0 mi SW 11.5 mph - N/A   Clear
3:55 AM 35.6 °F 27.5 °F 28.4 °F 75% 29.98 in 10.0 mi SW 11.5 mph - N/A   Clear
4:15 AM 37.4 °F 29.8 °F 28.4 °F 70% 29.97 in 10.0 mi SSW 11.5 mph - N/A   Clear
4:35 AM 37.4 °F 29.8 °F 28.4 °F 70% 29.96 in 10.0 mi SSW 11.5 mph - N/A   Clear
4:55 AM 35.6 °F 27.5 °F 28.4 °F 75% 29.96 in 10.0 mi SSW 11.5 mph - N/A   Clear
5:15 AM 35.6 °F 27.5 °F 28.4 °F 75% 29.96 in 10.0 mi SSW 11.5 mph - N/A   Clear
5:35 AM 35.6 °F 28.0 °F 28.4 °F 75% 29.96 in 10.0 mi SW 10.4 mph - N/A   Clear
5:55 AM 35.6 °F 28.0 °F 28.4 °F 75% 29.95 in 10.0 mi SSW 10.4 mph - N/A   Clear
6:15 AM 33.8 °F 25.3 °F 28.4 °F 81% 29.95 in 10.0 mi SSW 11.5 mph - N/A   Clear
6:35 AM 35.6 °F 28.0 °F 28.4 °F 75% 29.95 in 10.0 mi SW 10.4 mph - N/A   Clear
6:55 AM 35.6 °F 28.6 °F 28.4 °F 75% 29.94 in 10.0 mi SW 9.2 mph - N/A   Clear
7:15 AM 33.8 °F 26.4 °F 28.4 °F 81% 29.94 in 10.0 mi SW 9.2 mph - N/A   Clear
7:35 AM 33.8 °F 26.4 °F 28.4 °F 81% 29.93 in 10.0 mi SW 9.2 mph - N/A   Clear
7:55 AM 35.6 °F 28.0 °F 28.4 °F 75% 29.94 in 10.0 mi SW 10.4 mph - N/A   Clear
8:15 AM 37.4 °F 29.8 °F 28.4 °F 70% 29.94 in 10.0 mi SW 11.5 mph - N/A   Clear
8:35 AM 39.2 °F 33.6 °F 30.2 °F 70% 29.94 in 10.0 mi SW 8.1 mph - N/A   Clear
8:55 AM 42.8 °F 38.0 °F 30.2 °F 61% 29.93 in 10.0 mi SW 8.1 mph - N/A   Clear
9:15 AM 46.4 °F 41.9 °F 30.2 °F 53% 29.93 in 10.0 mi SSW 9.2 mph - N/A   Clear
9:35 AM 51.8 °F - 30.2 °F 44% 29.93 in 10.0 mi South 5.8 mph - N/A   Clear
9:55 AM 51.8 °F - 30.2 °F 44% 29.92 in 10.0 mi SW 5.8 mph - N/A   Clear
10:15 AM 53.6 °F - 32.0 °F 44% 29.91 in 10.0 mi WSW 5.8 mph - N/A   Clear
10:35 AM 53.6 °F - 32.0 °F 44% 29.90 in 10.0 mi West 3.5 mph - N/A   Clear
10:55 AM 55.4 °F - 33.8 °F 44% 29.89 in 10.0 mi WSW 4.6 mph - N/A   Clear
11:15 AM 59.0 °F - 32.0 °F 36% 29.89 in 10.0 mi WSW 3.5 mph - N/A   Clear
11:35 AM 62.6 °F - 32.0 °F 32% 29.87 in 10.0 mi Calm Calm - N/A   Clear
11:55 AM 68.0 °F - 26.6 °F 21% 29.86 in 10.0 mi SSE 6.9 mph - N/A   Clear
12:15 PM 68.0 °F - 23.0 °F 18% 29.85 in 10.0 mi South 13.8 mph - N/A   Clear
12:55 PM 68.0 °F - 21.2 °F 17% 29.81 in 10.0 mi South 18.4 mph - N/A   Clear
1:15 PM 69.8 °F - 23.0 °F 17% 29.80 in 10.0 mi South 16.1 mph 20.7 mph N/A   Clear
1:35 PM 69.8 °F - 21.2 °F 16% 29.78 in 10.0 mi South 15.0 mph - N/A   Clear
1:55 PM 69.8 °F - 21.2 °F 16% 29.76 in 10.0 mi South 16.1 mph 20.7 mph N/A   Clear
2:15 PM 69.8 °F - 23.0 °F 17% 29.75 in 10.0 mi SSW 15.0 mph 21.9 mph N/A   Clear
2:35 PM 69.8 °F - 21.2 °F 16% 29.74 in 10.0 mi South 15.0 mph - N/A   Clear
2:55 PM 69.8 °F - 21.2 °F 16% 29.73 in 10.0 mi South 19.6 mph - N/A   Clear
3:15 PM 69.8 °F - 21.2 °F 16% 29.72 in 10.0 mi South 20.7 mph - N/A   Clear
3:35 PM 68.0 °F - 23.0 °F 18% 29.72 in 10.0 mi South 16.1 mph 24.2 mph N/A   Clear
3:55 PM 66.2 °F - 26.6 °F 23% 29.71 in 10.0 mi South 20.7 mph - N/A   Clear
4:15 PM 64.4 °F - 26.6 °F 24% 29.71 in 10.0 mi South 20.7 mph 25.3 mph N/A   Clear
4:35 PM 64.4 °F - 28.4 °F 26% 29.70 in 10.0 mi South 19.6 mph 25.3 mph N/A   Clear
4:55 PM 64.4 °F - 26.6 °F 24% 29.70 in 10.0 mi South 21.9 mph 25.3 mph N/A   Clear
5:15 PM 62.6 °F - 26.6 °F 26% 29.69 in 10.0 mi South 16.1 mph 26.5 mph N/A   Clear
5:35 PM 62.6 °F - 26.6 °F 26% 29.69 in 10.0 mi South 12.7 mph - N/A   Clear
5:55 PM 59.0 °F - 26.6 °F 29% 29.68 in 10.0 mi South 11.5 mph - N/A   Clear
6:15 PM 59.0 °F - 26.6 °F 29% 29.68 in 10.0 mi SSE 8.1 mph - N/A   Clear
6:35 PM 53.6 °F - 26.6 °F 35% 29.67 in 10.0 mi SSE 5.8 mph - N/A   Clear
6:55 PM 53.6 °F - 26.6 °F 35% 29.66 in 10.0 mi SE 6.9 mph - N/A   Clear
7:15 PM 53.6 °F - 26.6 °F 35% 29.65 in 10.0 mi SE 5.8 mph - N/A   Clear
7:35 PM 51.8 °F - 26.6 °F 38% 29.64 in 10.0 mi SE 9.2 mph - N/A   Clear
7:55 PM 53.6 °F - 26.6 °F 35% 29.63 in 10.0 mi SSE 11.5 mph - N/A   Clear
8:15 PM 57.2 °F - 23.0 °F 27% 29.62 in 10.0 mi SSE 17.3 mph 21.9 mph N/A   Clear
8:35 PM 59.0 °F - 23.0 °F 25% 29.62 in 10.0 mi South 19.6 mph 26.5 mph N/A   Clear
8:55 PM 59.0 °F - 23.0 °F 25% 29.61 in 10.0 mi South 20.7 mph - N/A   Clear
9:15 PM 57.2 °F - 21.2 °F 25% 29.60 in 10.0 mi South 23.0 mph 26.5 mph N/A   Clear
9:35 PM 55.4 °F - 23.0 °F 29% 29.61 in 10.0 mi South 18.4 mph 25.3 mph N/A   Clear
9:55 PM 55.4 °F - 21.2 °F 26% 29.60 in 10.0 mi South 21.9 mph 26.5 mph N/A   Clear
10:15 PM 57.2 °F - 21.2 °F 25% 29.60 in 10.0 mi South 23.0 mph 27.6 mph N/A   Clear
10:35 PM 55.4 °F - 21.2 °F 26% 29.60 in 10.0 mi South 24.2 mph 28.8 mph N/A   Clear
10:55 PM 55.4 °F - 21.2 °F 26% 29.60 in 10.0 mi South 21.9 mph 28.8 mph N/A   Clear
11:15 PM 57.2 °F - 21.2 °F 25% 29.60 in 10.0 mi South 21.9 mph 29.9 mph N/A   Clear
11:35 PM 57.2 °F - 19.4 °F 23% 29.59 in 10.0 mi South 21.9 mph 28.8 mph N/A   Clear
11:55 PM 59.0 °F - 19.4 °F 22% 29.57 in 10.0 mi South 26.5 mph 35.7 mph N/A   Clear